Detall de PIREP

Printer-friendly versionPDF version

[2012/05/13 13:54:00]
Flight IATA:CT1005
Pilot Number:037
Company ICAO:CAT
Aircraft Type:B752/E
PAX:98
Departing Airport: LBSF
Destination Airport: LROP
Alternate Airport:LRCK
Online: VATSIM
Route:GOL M987 SORDU
Flight Level:F240
No Slew and time accel
No pause
Crash detect
Detect pilot in Cockpit between each 30 and 45 minutes
13:54 Zero fuel Weight: 158521 Lbs, Fuel Weight: 15773 Lbs
13:54 VATSIM:LBSF 131330Z 28011MPS 9999 FEW026 SCT030 BKN043 15/10 Q1015 TEMPO SCT040CB
13:54 VATSIM:LROP 131330Z 10012KT 060V140 CAVOK 20/10 Q1013 NOSIG
14:07 Parking Brakes off
14:16 Take-off
14:16 Take off Weight: 173073 Lbs
14:16 Wind: 277º @ 019 Knots Heading: 093º
14:16 POS N42º 41´ 49´´ E023º 24´ 59´´
14:16 Gear Up: 180 Knots
14:16 Flaps:2 at 181 Knots
14:16 Flaps:1 at 200 Knots
14:17 Flaps:0 at 228 Knots
14:23 TOC
14:23 Fuel Weight: 12452 Lb
14:30 TOD
14:30 Fuel Weight: 11256 Lb
14:31 Wind:270º@024 Knots Heading: 050º Ground Speed: 391 Knots Altitude 20869 ft
14:46 Wind:147º@012 Knots Heading: 100º Ground Speed: 208 Knots Altitude 3021 ft
14:46 Flaps:1 at 205 Knots
14:46 Flaps:2 at 188 Knots
14:46 Flaps:3 at 176 Knots
14:47 Gear Down: 163 Knots
14:47 Flaps:4 at 150 Knots
14:48 Flaps:5 at 144 Knots
14:50 TouchDown:Rate -135 ft/min Speed: 130 Knots
14:50 VATSIM:LROP 131430Z 11012KT 090V150 CAVOK 20/09 Q1013 NOSIG
14:50 Land
14:50 Wind:138º@012 Knots
14:50 Heading: 085º
14:50 Flight Duration: 00:34
14:50 Landing Weight: 168483 Lbs
14:50 POS N44º 34´ 00´´ E026º 06´ 13´´
14:56 Parking brakes on
14:56 Block to Block Duration: 00:49
14:56 Final Fuel: 9215 Lbls
14:56 Spent Fuel: 6558 Lbls
14:56 Flight Length: 120 NM
14:56 TOD Land Length: 28 NM

Exportar CSV

Powered by Drupal - Modified by Danger4k